createdAt,value
2022-09-29T00:00:55.935Z,3.03
2022-09-29T00:03:24.294Z,3.08
2022-09-29T00:05:55.534Z,3.42
2022-09-29T00:08:26.074Z,3.42
2022-09-29T00:10:54.148Z,3.92
2022-09-29T00:13:22.233Z,3.33
2022-09-29T00:15:57.473Z,3.70
2022-09-29T00:18:25.430Z,3.43
2022-09-29T00:21:05.847Z,3.70
2022-09-29T00:23:35.563Z,3.58
2022-09-29T00:26:05.985Z,3.95
2022-09-29T00:28:34.587Z,3.90
2022-09-29T00:31:03.570Z,4.25
2022-09-29T00:33:32.151Z,3.88
2022-09-29T00:36:02.219Z,3.88
2022-09-29T00:38:32.152Z,4.53
2022-09-29T00:41:00.201Z,4.07
2022-09-29T00:43:49.876Z,5.18
2022-09-29T00:46:19.655Z,4.78
2022-09-29T00:48:49.128Z,5.50
2022-09-29T00:51:18.463Z,5.50
2022-09-29T00:53:48.969Z,6.20
2022-09-29T00:56:19.313Z,6.95
2022-09-29T00:58:54.763Z,7.78
2022-09-29T01:01:26.509Z,8.02
2022-09-29T01:03:58.834Z,10.27
2022-09-29T01:06:30.538Z,10.02
2022-09-29T01:09:02.080Z,9.55
2022-09-29T01:11:31.235Z,9.55
2022-09-29T01:14:03.650Z,10.27
2022-09-29T01:16:32.260Z,9.73
2022-09-29T01:19:01.628Z,10.00
2022-09-29T01:21:42.116Z,9.43
2022-09-29T01:24:49.881Z,9.38
2022-09-29T01:27:25.862Z,8.77
2022-09-29T01:30:12.899Z,9.00
2022-09-29T01:32:56.409Z,8.88
2022-09-29T01:35:31.155Z,9.20
2022-09-29T01:38:15.239Z,10.27
2022-09-29T01:40:52.343Z,10.27
2022-09-29T01:43:24.954Z,9.32
2022-09-29T01:46:02.838Z,9.90
2022-09-29T01:48:35.592Z,8.90
2022-09-29T01:51:07.637Z,9.63
2022-09-29T01:53:39.379Z,9.25
2022-09-29T01:56:12.599Z,10.10
2022-09-29T01:58:47.539Z,10.52
2022-09-29T02:01:18.093Z,10.32
2022-09-29T02:03:52.685Z,11.07
2022-09-29T02:06:24.080Z,10.32
2022-09-29T02:08:54.605Z,9.88
2022-09-29T02:11:22.960Z,10.90
2022-09-29T02:13:57.265Z,11.30
2022-09-29T02:16:30.965Z,10.57
2022-09-29T02:19:05.838Z,11.27
2022-09-29T02:21:34.098Z,12.27
2022-09-29T02:24:02.293Z,13.02
2022-09-29T02:26:34.334Z,11.95
2022-09-29T02:29:02.536Z,12.05
2022-09-29T02:31:30.944Z,12.27
2022-09-29T02:34:00.589Z,11.25
2022-09-29T02:36:34.908Z,12.85
2022-09-29T02:39:07.248Z,12.43
2022-09-29T02:41:48.156Z,11.05
2022-09-29T02:44:31.712Z,12.68
2022-09-29T02:47:25.252Z,12.68
2022-09-29T02:50:27.812Z,11.05
2022-09-29T02:53:06.395Z,12.00
2022-09-29T02:55:41.147Z,10.63
2022-09-29T02:58:15.196Z,10.75
2022-09-29T03:00:44.063Z,11.48
2022-09-29T03:03:11.993Z,10.07
2022-09-29T03:05:41.119Z,10.75
2022-09-29T03:08:09.000Z,10.82
2022-09-29T03:10:36.723Z,11.02
2022-09-29T03:13:04.645Z,10.88
2022-09-29T03:15:32.435Z,11.35
2022-09-29T03:18:00.279Z,9.73
2022-09-29T03:20:27.955Z,10.70
2022-09-29T03:22:58.387Z,9.80
2022-09-29T03:25:26.560Z,10.85
2022-09-29T03:27:54.263Z,11.15
2022-09-29T03:30:23.307Z,11.57
2022-09-29T03:32:51.134Z,11.10
2022-09-29T03:35:19.059Z,11.10
2022-09-29T03:37:47.183Z,10.77
2022-09-29T03:40:16.580Z,10.60
2022-09-29T03:42:47.067Z,9.70
2022-09-29T03:45:14.833Z,10.85
2022-09-29T03:47:42.571Z,9.70
2022-09-29T03:50:10.942Z,10.05
2022-09-29T03:52:38.662Z,8.88
2022-09-29T03:55:07.277Z,8.70
2022-09-29T03:57:36.352Z,10.07
2022-09-29T04:00:05.203Z,9.25
2022-09-29T04:02:34.473Z,9.23
2022-09-29T04:05:02.237Z,10.43
2022-09-29T04:07:31.350Z,8.63
2022-09-29T04:09:59.052Z,9.07
2022-09-29T04:12:26.784Z,9.02
2022-09-29T04:14:55.831Z,9.48
2022-09-29T04:17:23.553Z,9.05
2022-09-29T04:19:51.252Z,8.82
2022-09-29T04:22:19.240Z,9.77
2022-09-29T04:24:48.144Z,9.02
2022-09-29T04:27:16.059Z,9.15
2022-09-29T04:29:43.822Z,7.70
2022-09-29T04:32:12.868Z,8.55
2022-09-29T04:34:41.590Z,9.30
2022-09-29T04:37:11.693Z,9.32
2022-09-29T04:39:39.747Z,8.18
2022-09-29T04:42:08.072Z,7.50
2022-09-29T04:44:35.800Z,7.35
2022-09-29T04:47:03.470Z,8.48
2022-09-29T04:49:32.614Z,8.10
2022-09-29T04:52:00.312Z,8.15
2022-09-29T04:54:36.840Z,8.60
2022-09-29T04:57:06.047Z,9.52
2022-09-29T04:59:34.180Z,9.45
2022-09-29T05:02:01.986Z,9.02
2022-09-29T05:04:29.787Z,8.57
2022-09-29T05:06:58.859Z,7.07
2022-09-29T05:09:31.127Z,7.80
2022-09-29T05:12:01.039Z,7.72
2022-09-29T05:14:28.856Z,8.73
2022-09-29T05:16:56.856Z,8.70
2022-09-29T05:19:24.959Z,8.70
2022-09-29T05:21:52.754Z,11.40
2022-09-29T05:24:21.834Z,10.65
2022-09-29T05:26:49.545Z,12.25
2022-09-29T05:29:17.765Z,11.20
2022-09-29T05:31:46.014Z,9.48
2022-09-29T05:34:13.718Z,8.85
2022-09-29T05:36:41.482Z,10.45
2022-09-29T05:39:09.408Z,9.52
2022-09-29T05:41:38.613Z,8.98
2022-09-29T05:44:06.523Z,8.45
2022-09-29T05:46:34.260Z,8.80
2022-09-29T05:49:02.210Z,7.78
2022-09-29T05:51:30.163Z,8.35
2022-09-29T05:53:57.880Z,11.20
2022-09-29T05:56:27.387Z,12.77
2022-09-29T05:58:56.884Z,12.07
2022-09-29T06:01:27.101Z,10.95
2022-09-29T06:03:55.276Z,11.57
2022-09-29T06:06:24.868Z,11.85
2022-09-29T06:08:53.128Z,12.75
2022-09-29T06:11:23.293Z,13.07
2022-09-29T06:13:53.571Z,11.52
2022-09-29T06:16:25.867Z,12.10
2022-09-29T06:18:54.119Z,12.23
2022-09-29T06:21:24.693Z,11.60
2022-09-29T06:23:52.977Z,12.40
2022-09-29T06:26:24.165Z,11.80
2022-09-29T06:28:52.404Z,10.85
2022-09-29T06:31:23.813Z,9.88
2022-09-29T06:33:52.168Z,11.45
2022-09-29T06:36:39.449Z,10.85
2022-09-29T06:39:08.852Z,12.82
2022-09-29T06:41:36.631Z,11.27
2022-09-29T06:44:04.429Z,11.45
2022-09-29T06:46:33.832Z,11.43
2022-09-29T06:49:01.552Z,11.13
2022-09-29T06:51:42.546Z,10.10
2022-09-29T06:54:14.208Z,9.55
2022-09-29T06:56:42.466Z,11.00
2022-09-29T06:59:10.239Z,10.55
2022-09-29T07:01:39.331Z,9.07
2022-09-29T07:04:07.056Z,9.95
2022-09-29T07:06:35.417Z,8.85
2022-09-29T07:09:03.284Z,8.07
2022-09-29T07:11:31.032Z,10.20
2022-09-29T07:13:58.720Z,9.00
2022-09-29T07:16:26.481Z,9.27
2022-09-29T07:18:55.621Z,9.05
2022-09-29T07:21:23.409Z,8.52
2022-09-29T07:23:51.313Z,7.75
2022-09-29T07:26:19.336Z,8.30
2022-09-29T07:28:48.104Z,9.32
2022-09-29T07:31:18.544Z,7.05
2022-09-29T07:33:47.709Z,6.60
2022-09-29T07:36:18.608Z,6.22
2022-09-29T07:38:47.268Z,7.25
2022-09-29T07:41:15.332Z,6.60
2022-09-29T07:43:43.109Z,6.75
2022-09-29T07:46:11.008Z,6.88
2022-09-29T07:48:39.231Z,6.78
2022-09-29T07:51:08.984Z,6.00
2022-09-29T07:53:39.022Z,6.13
2022-09-29T07:56:08.934Z,6.50
2022-09-29T07:58:37.471Z,6.10
2022-09-29T08:01:10.196Z,6.07
2022-09-29T08:03:38.846Z,5.88
2022-09-29T08:06:07.221Z,6.35
2022-09-29T08:08:36.692Z,6.25
2022-09-29T08:11:10.189Z,5.97
2022-09-29T08:13:39.398Z,5.72
2022-09-29T08:16:09.097Z,5.50
2022-09-29T08:18:37.438Z,6.03
2022-09-29T08:21:06.912Z,5.90
2022-09-29T08:23:37.379Z,6.13
2022-09-29T08:26:08.010Z,6.35
2022-09-29T08:28:37.653Z,5.50
2022-09-29T08:31:07.228Z,5.30
2022-09-29T08:33:35.619Z,5.10
2022-09-29T08:36:06.096Z,4.97
2022-09-29T08:38:34.958Z,4.78
2022-09-29T08:41:06.116Z,4.82
2022-09-29T08:43:39.181Z,5.35
2022-09-29T08:46:11.629Z,4.82
2022-09-29T08:48:53.881Z,5.18
2022-09-29T08:51:40.785Z,5.05
2022-09-29T08:54:23.451Z,5.20
2022-09-29T08:56:55.310Z,5.00
2022-09-29T08:59:25.203Z,5.00
2022-09-29T09:02:06.257Z,4.95
2022-09-29T09:04:54.804Z,5.28
2022-09-29T09:07:28.006Z,5.10
2022-09-29T09:10:06.503Z,4.25
2022-09-29T09:13:08.297Z,4.93
2022-09-29T09:15:54.173Z,5.03
2022-09-29T09:18:51.665Z,4.35
2022-09-29T09:21:24.775Z,6.03
2022-09-29T09:24:00.103Z,5.65
2022-09-29T09:26:36.111Z,4.35
2022-09-29T09:29:10.200Z,5.38
2022-09-29T09:31:43.032Z,4.95
2022-09-29T09:34:17.413Z,4.53
2022-09-29T09:36:56.017Z,3.95
2022-09-29T09:39:30.776Z,4.60
2022-09-29T09:42:01.182Z,4.10
2022-09-29T09:44:34.771Z,4.45
2022-09-29T09:47:10.622Z,4.20
2022-09-29T09:49:43.432Z,4.18
2022-09-29T09:52:14.276Z,4.18
2022-09-29T09:54:45.891Z,4.00
2022-09-29T09:57:44.091Z,3.95
2022-09-29T10:00:14.938Z,3.85
2022-09-29T10:02:46.844Z,3.72
2022-09-29T10:05:17.318Z,3.67
2022-09-29T10:07:45.735Z,3.35
2022-09-29T10:10:18.768Z,3.70
2022-09-29T10:12:46.873Z,3.38
2022-09-29T10:15:22.781Z,3.42
2022-09-29T10:20:34.548Z,3.60
2022-09-29T10:23:25.570Z,3.65
2022-09-29T10:25:56.279Z,3.50
2022-09-29T10:28:24.641Z,3.30
2022-09-29T10:30:55.096Z,2.90
2022-09-29T10:33:25.578Z,3.15
2022-09-29T10:36:06.840Z,3.22
2022-09-29T10:38:35.587Z,4.00
2022-09-29T10:41:05.904Z,3.00
2022-09-29T10:43:37.409Z,3.63
2022-09-29T10:46:27.640Z,3.10
2022-09-29T10:49:11.180Z,3.60
2022-09-29T10:51:40.273Z,3.03
2022-09-29T10:54:09.524Z,2.75
2022-09-29T10:56:37.815Z,2.90
2022-09-29T10:59:06.320Z,2.55
2022-09-29T11:01:47.485Z,3.08
2022-09-29T11:04:20.789Z,2.80
2022-09-29T11:06:49.760Z,2.63
2022-09-29T11:09:38.914Z,3.00
2022-09-29T11:12:09.448Z,2.95
2022-09-29T11:14:42.539Z,2.80
2022-09-29T11:17:24.696Z,3.08
2022-09-29T11:19:53.346Z,2.90
2022-09-29T11:22:46.941Z,2.80
2022-09-29T11:25:27.146Z,2.80
2022-09-29T11:28:05.690Z,3.28
2022-09-29T11:30:43.401Z,2.70
2022-09-29T11:33:26.426Z,3.08
2022-09-29T11:36:01.117Z,3.03
2022-09-29T11:38:56.092Z,2.45
2022-09-29T11:41:46.985Z,2.70
2022-09-29T11:44:34.312Z,2.90
2022-09-29T11:47:12.236Z,2.83
2022-09-29T11:49:59.558Z,2.85
2022-09-29T11:52:55.011Z,2.97
2022-09-29T11:55:45.241Z,2.20
2022-09-29T11:58:25.296Z,2.67
2022-09-29T12:01:04.874Z,2.60
2022-09-29T12:03:41.297Z,2.55
2022-09-29T12:06:31.942Z,2.60
2022-09-29T12:09:09.083Z,2.70
2022-09-29T12:12:05.278Z,2.55
2022-09-29T12:14:58.051Z,2.65
2022-09-29T12:17:31.140Z,2.72
2022-09-29T12:20:03.192Z,2.97
2022-09-29T12:22:34.590Z,2.35
2022-09-29T12:25:05.098Z,3.00
2022-09-29T12:27:37.395Z,2.65
2022-09-29T12:30:15.796Z,2.72
2022-09-29T12:32:51.781Z,2.03
2022-09-29T12:35:25.399Z,2.10
2022-09-29T12:38:01.148Z,2.35
2022-09-29T12:40:35.179Z,1.73
2022-09-29T12:43:11.139Z,2.00
2022-09-29T12:45:48.430Z,1.85
2022-09-29T12:48:32.500Z,1.52
2022-09-29T12:51:05.032Z,1.75
2022-09-29T12:53:38.308Z,1.80
2022-09-29T12:56:11.300Z,1.73
2022-09-29T12:58:43.185Z,1.40
2022-09-29T13:01:22.697Z,2.10
2022-09-29T13:04:38.479Z,1.73
2022-09-29T13:07:56.829Z,2.05
2022-09-29T13:10:52.012Z,1.83
2022-09-29T13:13:52.471Z,1.88
2022-09-29T13:16:35.499Z,2.30
2022-09-29T13:19:56.088Z,2.03
2022-09-29T13:22:41.177Z,1.90
2022-09-29T13:25:21.803Z,1.98
2022-09-29T13:27:53.559Z,1.98
2022-09-29T13:30:24.077Z,1.67
2022-09-29T13:33:01.389Z,1.90
2022-09-29T13:35:29.983Z,1.85
2022-09-29T13:38:05.113Z,1.50
2022-09-29T13:40:33.892Z,1.80
2022-09-29T13:43:05.324Z,1.63
2022-09-29T13:45:41.255Z,2.25
2022-09-29T13:48:49.785Z,1.77
2022-09-29T13:51:50.713Z,1.65
2022-09-29T13:54:51.378Z,1.48
2022-09-29T13:57:27.105Z,1.60
2022-09-29T14:00:25.617Z,1.80
2022-09-29T14:03:22.085Z,1.58
2022-09-29T14:06:22.586Z,2.08
2022-09-29T14:09:00.178Z,1.60
2022-09-29T14:11:32.449Z,2.13
2022-09-29T14:14:03.220Z,1.48
2022-09-29T14:16:44.367Z,1.38
2022-09-29T14:19:26.332Z,2.10
2022-09-29T14:21:55.653Z,1.63
2022-09-29T14:24:47.007Z,1.27
2022-09-29T14:27:31.646Z,1.10
2022-09-29T14:30:15.587Z,1.40
2022-09-29T14:32:52.125Z,1.67
2022-09-29T14:35:29.760Z,1.27
2022-09-29T14:38:05.508Z,1.58
2022-09-29T14:40:34.249Z,2.28
2022-09-29T14:43:13.559Z,1.67
2022-09-29T14:46:44.886Z,1.70
2022-09-29T14:49:56.205Z,1.77
2022-09-29T14:52:35.364Z,1.48
2022-09-29T14:55:12.256Z,1.77
2022-09-29T14:57:54.825Z,1.45
2022-09-29T15:00:26.737Z,1.42
2022-09-29T15:03:00.231Z,1.90
2022-09-29T15:05:35.421Z,1.52
2022-09-29T15:08:04.930Z,1.33
2022-09-29T15:10:40.884Z,1.95
2022-09-29T15:15:49.937Z,1.10
2022-09-29T15:18:33.572Z,1.63
2022-09-29T15:21:11.705Z,1.40
2022-09-29T15:24:03.997Z,1.30
2022-09-29T15:26:34.133Z,1.35
2022-09-29T15:29:02.100Z,1.70
2022-09-29T15:31:34.413Z,1.40
2022-09-29T15:34:04.025Z,1.50
2022-09-29T15:36:37.629Z,0.98
2022-09-29T15:39:08.659Z,1.20
2022-09-29T15:41:36.583Z,1.13
2022-09-29T15:44:15.647Z,1.20
2022-09-29T15:46:50.137Z,1.00
2022-09-29T15:49:20.019Z,0.80
2022-09-29T15:51:59.266Z,1.10
2022-09-29T15:54:29.655Z,1.92
2022-09-29T15:57:15.095Z,1.70
2022-09-29T15:59:50.079Z,1.67
2022-09-29T16:02:30.187Z,1.07
2022-09-29T16:05:01.284Z,1.10
2022-09-29T16:07:34.359Z,1.50
2022-09-29T16:10:09.264Z,1.02
2022-09-29T16:12:40.563Z,0.70
2022-09-29T16:15:12.206Z,1.00
2022-09-29T16:17:41.267Z,1.30
2022-09-29T16:20:15.935Z,1.23
2022-09-29T16:22:49.690Z,1.45
2022-09-29T16:25:25.290Z,1.80
2022-09-29T16:27:56.522Z,2.35
2022-09-29T16:30:26.951Z,3.25
2022-09-29T16:33:12.836Z,3.65
2022-09-29T16:35:48.507Z,3.60
2022-09-29T16:38:23.648Z,2.78
2022-09-29T16:40:51.988Z,2.37
2022-09-29T16:43:26.921Z,1.40
2022-09-29T16:45:57.130Z,2.10
2022-09-29T16:48:26.290Z,4.47
2022-09-29T16:50:56.853Z,2.75
2022-09-29T16:53:29.206Z,2.50
2022-09-29T16:55:58.716Z,2.83
2022-09-29T16:58:27.509Z,2.95
2022-09-29T17:00:55.447Z,3.17
2022-09-29T17:03:23.206Z,3.60
2022-09-29T17:05:51.501Z,4.82
2022-09-29T17:08:22.724Z,3.92
2022-09-29T17:10:52.805Z,4.78
2022-09-29T17:13:21.517Z,5.07
2022-09-29T17:15:52.135Z,5.40
2022-09-29T17:18:21.906Z,3.50
2022-09-29T17:20:49.679Z,3.10
2022-09-29T17:23:17.500Z,3.20
2022-09-29T17:25:47.232Z,3.70
2022-09-29T17:28:18.100Z,3.70
2022-09-29T17:30:48.418Z,4.57
2022-09-29T17:33:18.192Z,3.92
2022-09-29T17:35:50.362Z,17.38
2022-09-29T17:38:22.310Z,7.10
2022-09-29T17:40:53.583Z,6.75
2022-09-29T17:43:23.192Z,5.43
2022-09-29T17:45:51.547Z,5.90
2022-09-29T17:48:19.961Z,5.07
2022-09-29T17:50:49.226Z,5.78
2022-09-29T17:53:17.550Z,4.68
2022-09-29T17:55:47.309Z,4.88
2022-09-29T17:58:16.500Z,5.07
2022-09-29T18:00:48.649Z,4.85
2022-09-29T18:03:18.387Z,4.40
2022-09-29T18:05:48.375Z,4.13
2022-09-29T18:08:19.106Z,4.28
2022-09-29T18:10:52.396Z,3.75
2022-09-29T18:13:20.581Z,3.55
2022-09-29T18:15:50.204Z,4.25
2022-09-29T18:18:20.704Z,3.60
2022-09-29T18:20:50.172Z,3.78
2022-09-29T18:23:19.310Z,4.25
2022-09-29T18:25:49.885Z,3.83
2022-09-29T18:28:18.871Z,3.80
2022-09-29T18:30:50.326Z,4.90
2022-09-29T18:33:20.053Z,4.72
2022-09-29T18:35:53.033Z,5.35
2022-09-29T18:38:20.939Z,4.72
2022-09-29T18:40:48.711Z,4.53
2022-09-29T18:43:16.459Z,5.50
2022-09-29T18:45:45.070Z,5.13
2022-09-29T18:48:15.686Z,5.05
2022-09-29T18:50:44.963Z,5.35
2022-09-29T18:53:13.823Z,5.40
2022-09-29T18:55:42.180Z,5.63
2022-09-29T18:58:13.671Z,5.20
2022-09-29T19:00:44.314Z,5.50
2022-09-29T19:03:13.761Z,5.25
2022-09-29T19:05:43.423Z,4.80
2022-09-29T19:08:13.986Z,5.38
2022-09-29T19:10:48.321Z,5.10
2022-09-29T19:13:16.480Z,4.60
2022-09-29T19:15:46.115Z,5.00
2022-09-29T19:18:20.635Z,5.53
2022-09-29T19:20:48.383Z,5.28
2022-09-29T19:23:19.435Z,5.50
2022-09-29T19:25:48.976Z,5.32
2022-09-29T19:28:18.048Z,5.03
2022-09-29T19:30:46.549Z,4.90
2022-09-29T19:33:17.961Z,6.10
2022-09-29T19:35:48.287Z,10.18
2022-09-29T19:38:16.508Z,8.25
2022-09-29T19:40:45.891Z,5.10
2022-09-29T19:43:14.313Z,5.20
2022-09-29T19:45:43.543Z,6.03
2022-09-29T19:48:15.973Z,5.95
2022-09-29T19:51:03.028Z,6.43
2022-09-29T19:53:31.067Z,5.63
2022-09-29T19:55:59.607Z,5.50
2022-09-29T19:58:27.738Z,5.38
2022-09-29T20:00:57.592Z,5.20
2022-09-29T20:03:25.569Z,5.28
2022-09-29T20:06:00.191Z,5.15
2022-09-29T20:08:28.359Z,4.68
2022-09-29T20:10:56.275Z,5.35
2022-09-29T20:13:24.039Z,5.43
2022-09-29T20:15:52.185Z,4.47
2022-09-29T20:18:19.946Z,4.70
2022-09-29T20:20:51.464Z,4.95
2022-09-29T20:23:20.672Z,6.28
2022-09-29T20:25:59.954Z,5.18
2022-09-29T20:28:28.233Z,5.78
2022-09-29T20:30:59.610Z,6.28
2022-09-29T20:33:27.899Z,5.45
2022-09-29T20:35:55.804Z,5.50
2022-09-29T20:38:24.953Z,5.65
2022-09-29T20:40:52.846Z,5.07
2022-09-29T20:43:22.294Z,4.82
2022-09-29T20:45:50.200Z,5.35
2022-09-29T20:48:18.179Z,4.78
2022-09-29T20:50:46.378Z,5.30
2022-09-29T20:53:14.070Z,5.30
2022-09-29T20:55:43.100Z,4.68
2022-09-29T20:58:12.071Z,4.32
2022-09-29T21:00:40.028Z,3.60
2022-09-29T21:03:07.983Z,3.75
2022-09-29T21:05:35.668Z,4.85
2022-09-29T21:08:03.477Z,3.72
2022-09-29T21:10:31.177Z,3.33
2022-09-29T21:13:03.109Z,3.45
2022-09-29T21:15:30.928Z,3.85
2022-09-29T21:17:58.709Z,3.38
2022-09-29T21:20:26.982Z,4.05
2022-09-29T21:22:54.743Z,3.67
2022-09-29T21:25:22.457Z,4.18
2022-09-29T21:27:50.830Z,3.95
2022-09-29T21:30:19.883Z,3.72
2022-09-29T21:32:48.204Z,3.75
2022-09-29T21:35:16.427Z,3.20
2022-09-29T21:37:44.903Z,3.38
2022-09-29T21:40:12.576Z,3.95
2022-09-29T21:42:40.612Z,4.32
2022-09-29T21:45:10.209Z,4.60
2022-09-29T21:47:56.863Z,4.38
2022-09-29T21:52:52.632Z,4.22
2022-09-29T21:55:20.338Z,4.28
2022-09-29T21:57:48.099Z,4.95
2022-09-29T22:00:17.216Z,4.85
2022-09-29T22:02:46.337Z,5.18
2022-09-29T22:05:14.271Z,4.70
2022-09-29T22:07:42.100Z,4.80
2022-09-29T22:10:10.563Z,5.75
2022-09-29T22:12:38.443Z,5.90
2022-09-29T22:15:07.690Z,5.43
2022-09-29T22:17:35.462Z,4.97
2022-09-29T22:20:05.291Z,5.35
2022-09-29T22:22:32.982Z,5.03
2022-09-29T22:25:00.770Z,5.38
2022-09-29T22:27:28.640Z,4.50
2022-09-29T22:29:56.399Z,5.03
2022-09-29T22:32:24.341Z,4.65
2022-09-29T22:34:52.410Z,5.03
2022-09-29T22:37:21.484Z,5.18
2022-09-29T22:39:49.197Z,5.22
2022-09-29T22:42:16.899Z,4.72
2022-09-29T22:44:44.580Z,4.55
2022-09-29T22:47:12.415Z,4.88
2022-09-29T22:49:40.111Z,4.72
2022-09-29T22:52:07.831Z,5.47
2022-09-29T22:54:36.859Z,4.63
2022-09-29T22:57:06.050Z,5.00
2022-09-29T22:59:33.752Z,5.00
2022-09-29T23:02:01.742Z,4.88
2022-09-29T23:04:29.717Z,5.75
2022-09-29T23:06:57.726Z,4.93
2022-09-29T23:09:25.568Z,5.45
2022-09-29T23:11:55.416Z,5.35
2022-09-29T23:14:23.448Z,5.18
2022-09-29T23:16:51.168Z,6.20
2022-09-29T23:19:19.814Z,5.13
2022-09-29T23:21:47.801Z,4.63
2022-09-29T23:24:16.371Z,5.85
2022-09-29T23:26:46.068Z,5.55
2022-09-29T23:29:15.141Z,5.32
2022-09-29T23:31:48.713Z,5.43
2022-09-29T23:34:17.254Z,4.72
2022-09-29T23:36:44.964Z,5.13
2022-09-29T23:39:13.748Z,5.82
2022-09-29T23:41:43.193Z,4.50
2022-09-29T23:44:12.429Z,4.75
2022-09-29T23:46:41.701Z,4.50
2022-09-29T23:49:11.377Z,4.85
2022-09-29T23:51:40.747Z,5.15
2022-09-29T23:54:09.848Z,5.03
2022-09-29T23:56:38.075Z,5.82
2022-09-29T23:59:07.024Z,6.45
